sensor_id;sensor_type;location;lat;lon;timestamp;P1;durP1;ratioP1;P2;durP2;ratioP2
795;SDS011;381;48.770;9.188;2022-08-21T00:04:57;3.53;;;3.23;;
795;SDS011;381;48.770;9.188;2022-08-21T00:09:59;3.33;;;3.13;;
795;SDS011;381;48.770;9.188;2022-08-21T00:15:02;3.30;;;3.10;;
795;SDS011;381;48.770;9.188;2022-08-21T00:20:08;5.40;;;3.80;;
795;SDS011;381;48.770;9.188;2022-08-21T00:25:11;3.30;;;3.10;;
795;SDS011;381;48.770;9.188;2022-08-21T00:30:15;3.63;;;3.33;;
795;SDS011;381;48.770;9.188;2022-08-21T00:35:22;7.80;;;4.30;;
795;SDS011;381;48.770;9.188;2022-08-21T00:40:28;3.70;;;3.27;;
795;SDS011;381;48.770;9.188;2022-08-21T00:45:32;3.63;;;3.33;;
795;SDS011;381;48.770;9.188;2022-08-21T00:50:38;3.57;;;3.27;;
795;SDS011;381;48.770;9.188;2022-08-21T00:55:43;3.40;;;3.10;;
795;SDS011;381;48.770;9.188;2022-08-21T01:00:47;4.80;;;3.60;;
795;SDS011;381;48.770;9.188;2022-08-21T01:05:52;3.73;;;3.40;;
795;SDS011;381;48.770;9.188;2022-08-21T01:10:54;4.40;;;3.70;;
795;SDS011;381;48.770;9.188;2022-08-21T01:15:59;3.87;;;3.43;;
795;SDS011;381;48.770;9.188;2022-08-21T01:21:07;3.63;;;3.40;;
795;SDS011;381;48.770;9.188;2022-08-21T01:26:11;8.60;;;4.17;;
795;SDS011;381;48.770;9.188;2022-08-21T01:31:14;4.00;;;3.40;;
795;SDS011;381;48.770;9.188;2022-08-21T01:36:20;6.80;;;4.00;;
795;SDS011;381;48.770;9.188;2022-08-21T01:41:23;4.47;;;4.07;;
795;SDS011;381;48.770;9.188;2022-08-21T01:46:25;4.43;;;3.50;;
795;SDS011;381;48.770;9.188;2022-08-21T01:51:29;3.97;;;3.60;;
795;SDS011;381;48.770;9.188;2022-08-21T01:56:35;4.00;;;3.70;;
795;SDS011;381;48.770;9.188;2022-08-21T02:01:38;4.47;;;4.07;;
795;SDS011;381;48.770;9.188;2022-08-21T02:06:42;4.67;;;3.77;;
795;SDS011;381;48.770;9.188;2022-08-21T02:11:44;4.60;;;4.20;;
795;SDS011;381;48.770;9.188;2022-08-21T02:16:47;3.73;;;3.53;;
795;SDS011;381;48.770;9.188;2022-08-21T02:21:50;3.90;;;3.60;;
795;SDS011;381;48.770;9.188;2022-08-21T02:26:52;4.10;;;3.80;;
795;SDS011;381;48.770;9.188;2022-08-21T02:31:54;4.07;;;3.73;;
795;SDS011;381;48.770;9.188;2022-08-21T02:36:58;4.27;;;3.87;;
795;SDS011;381;48.770;9.188;2022-08-21T02:42:00;4.00;;;3.70;;
795;SDS011;381;48.770;9.188;2022-08-21T02:47:02;4.07;;;3.70;;
795;SDS011;381;48.770;9.188;2022-08-21T02:52:05;4.33;;;3.93;;
795;SDS011;381;48.770;9.188;2022-08-21T02:57:07;4.90;;;4.60;;
795;SDS011;381;48.770;9.188;2022-08-21T03:02:10;4.13;;;3.60;;
795;SDS011;381;48.770;9.188;2022-08-21T03:07:14;4.80;;;4.40;;
795;SDS011;381;48.770;9.188;2022-08-21T03:12:16;4.57;;;4.17;;
795;SDS011;381;48.770;9.188;2022-08-21T03:17:19;4.80;;;4.40;;
795;SDS011;381;48.770;9.188;2022-08-21T03:22:22;6.07;;;4.00;;
795;SDS011;381;48.770;9.188;2022-08-21T03:27:24;4.60;;;4.23;;
795;SDS011;381;48.770;9.188;2022-08-21T03:32:27;4.30;;;3.53;;
795;SDS011;381;48.770;9.188;2022-08-21T03:37:33;4.60;;;4.23;;
795;SDS011;381;48.770;9.188;2022-08-21T03:42:35;4.13;;;3.73;;
795;SDS011;381;48.770;9.188;2022-08-21T03:47:37;5.00;;;4.10;;
795;SDS011;381;48.770;9.188;2022-08-21T03:52:40;8.30;;;4.43;;
795;SDS011;381;48.770;9.188;2022-08-21T03:57:42;4.97;;;4.20;;
795;SDS011;381;48.770;9.188;2022-08-21T04:02:45;4.80;;;4.30;;
795;SDS011;381;48.770;9.188;2022-08-21T04:07:49;4.20;;;3.80;;
795;SDS011;381;48.770;9.188;2022-08-21T04:12:51;5.70;;;4.63;;
795;SDS011;381;48.770;9.188;2022-08-21T04:17:53;5.53;;;5.03;;
795;SDS011;381;48.770;9.188;2022-08-21T04:22:57;5.37;;;4.80;;
795;SDS011;381;48.770;9.188;2022-08-21T04:27:59;4.93;;;4.63;;
795;SDS011;381;48.770;9.188;2022-08-21T04:33:02;5.00;;;4.53;;
795;SDS011;381;48.770;9.188;2022-08-21T04:38:06;4.57;;;4.17;;
795;SDS011;381;48.770;9.188;2022-08-21T04:43:08;4.90;;;4.50;;
795;SDS011;381;48.770;9.188;2022-08-21T04:48:12;5.37;;;4.90;;
795;SDS011;381;48.770;9.188;2022-08-21T04:53:17;4.63;;;4.23;;
795;SDS011;381;48.770;9.188;2022-08-21T04:58:21;5.30;;;4.80;;
795;SDS011;381;48.770;9.188;2022-08-21T05:03:26;5.30;;;4.83;;
795;SDS011;381;48.770;9.188;2022-08-21T05:08:30;6.30;;;4.50;;
795;SDS011;381;48.770;9.188;2022-08-21T05:13:32;5.00;;;4.50;;
795;SDS011;381;48.770;9.188;2022-08-21T05:18:35;4.50;;;4.20;;
795;SDS011;381;48.770;9.188;2022-08-21T05:23:38;4.70;;;4.40;;
795;SDS011;381;48.770;9.188;2022-08-21T05:28:40;7.10;;;4.50;;
795;SDS011;381;48.770;9.188;2022-08-21T05:33:42;4.87;;;4.57;;
795;SDS011;381;48.770;9.188;2022-08-21T05:38:46;5.17;;;4.70;;
795;SDS011;381;48.770;9.188;2022-08-21T05:43:48;4.50;;;4.10;;
795;SDS011;381;48.770;9.188;2022-08-21T05:48:50;5.60;;;5.10;;
795;SDS011;381;48.770;9.188;2022-08-21T05:53:53;5.03;;;4.63;;
795;SDS011;381;48.770;9.188;2022-08-21T05:58:55;4.50;;;4.20;;
795;SDS011;381;48.770;9.188;2022-08-21T06:03:58;4.80;;;4.40;;
795;SDS011;381;48.770;9.188;2022-08-21T06:09:01;4.87;;;4.53;;
795;SDS011;381;48.770;9.188;2022-08-21T06:14:04;5.70;;;5.13;;
795;SDS011;381;48.770;9.188;2022-08-21T06:19:06;4.80;;;4.30;;
795;SDS011;381;48.770;9.188;2022-08-21T06:24:10;5.43;;;5.00;;
795;SDS011;381;48.770;9.188;2022-08-21T06:29:12;4.87;;;4.47;;
795;SDS011;381;48.770;9.188;2022-08-21T06:34:16;4.93;;;4.43;;
795;SDS011;381;48.770;9.188;2022-08-21T06:39:21;4.90;;;4.60;;
795;SDS011;381;48.770;9.188;2022-08-21T06:44:23;4.90;;;4.50;;
795;SDS011;381;48.770;9.188;2022-08-21T06:49:25;5.43;;;4.93;;
795;SDS011;381;48.770;9.188;2022-08-21T06:54:29;5.70;;;5.20;;
795;SDS011;381;48.770;9.188;2022-08-21T06:59:33;5.83;;;5.07;;
795;SDS011;381;48.770;9.188;2022-08-21T07:04:35;6.03;;;4.90;;
795;SDS011;381;48.770;9.188;2022-08-21T07:09:39;5.80;;;5.00;;
795;SDS011;381;48.770;9.188;2022-08-21T07:14:41;7.50;;;5.30;;
795;SDS011;381;48.770;9.188;2022-08-21T07:19:43;6.13;;;5.20;;
795;SDS011;381;48.770;9.188;2022-08-21T07:24:47;6.73;;;6.13;;
795;SDS011;381;48.770;9.188;2022-08-21T07:29:49;9.87;;;7.60;;
795;SDS011;381;48.770;9.188;2022-08-21T07:34:51;5.20;;;4.80;;
795;SDS011;381;48.770;9.188;2022-08-21T07:39:54;7.53;;;5.67;;
795;SDS011;381;48.770;9.188;2022-08-21T07:44:56;5.57;;;4.90;;
795;SDS011;381;48.770;9.188;2022-08-21T07:49:58;5.50;;;5.20;;
795;SDS011;381;48.770;9.188;2022-08-21T07:55:02;7.70;;;5.23;;
795;SDS011;381;48.770;9.188;2022-08-21T08:00:05;5.43;;;4.83;;
795;SDS011;381;48.770;9.188;2022-08-21T08:05:13;5.27;;;4.87;;
795;SDS011;381;48.770;9.188;2022-08-21T08:10:16;5.30;;;5.00;;
795;SDS011;381;48.770;9.188;2022-08-21T08:15:20;5.77;;;5.23;;
795;SDS011;381;48.770;9.188;2022-08-21T08:20:24;5.53;;;5.03;;
795;SDS011;381;48.770;9.188;2022-08-21T08:25:28;5.60;;;5.10;;
795;SDS011;381;48.770;9.188;2022-08-21T08:30:30;5.87;;;5.47;;
795;SDS011;381;48.770;9.188;2022-08-21T08:35:33;7.50;;;5.27;;
795;SDS011;381;48.770;9.188;2022-08-21T08:40:38;5.50;;;5.00;;
795;SDS011;381;48.770;9.188;2022-08-21T08:45:46;5.20;;;4.70;;
795;SDS011;381;48.770;9.188;2022-08-21T08:50:52;5.13;;;4.73;;
795;SDS011;381;48.770;9.188;2022-08-21T08:56:00;4.87;;;4.50;;
795;SDS011;381;48.770;9.188;2022-08-21T09:01:05;4.83;;;4.43;;
795;SDS011;381;48.770;9.188;2022-08-21T09:06:18;6.10;;;5.70;;
795;SDS011;381;48.770;9.188;2022-08-21T09:11:32;4.67;;;4.10;;
795;SDS011;381;48.770;9.188;2022-08-21T09:16:46;7.77;;;5.00;;
795;SDS011;381;48.770;9.188;2022-08-21T09:21:54;5.87;;;5.40;;
795;SDS011;381;48.770;9.188;2022-08-21T09:27:05;5.90;;;5.50;;
795;SDS011;381;48.770;9.188;2022-08-21T09:32:11;5.37;;;4.87;;
795;SDS011;381;48.770;9.188;2022-08-21T09:37:18;5.13;;;4.63;;
795;SDS011;381;48.770;9.188;2022-08-21T09:42:23;6.50;;;5.37;;
795;SDS011;381;48.770;9.188;2022-08-21T09:47:27;7.00;;;5.73;;
795;SDS011;381;48.770;9.188;2022-08-21T09:52:30;5.27;;;4.77;;
795;SDS011;381;48.770;9.188;2022-08-21T09:57:34;5.47;;;5.07;;
795;SDS011;381;48.770;9.188;2022-08-21T10:02:46;7.57;;;4.40;;
795;SDS011;381;48.770;9.188;2022-08-21T10:07:48;5.73;;;5.13;;
795;SDS011;381;48.770;9.188;2022-08-21T10:12:54;7.60;;;6.30;;
795;SDS011;381;48.770;9.188;2022-08-21T10:18:04;6.30;;;5.80;;
795;SDS011;381;48.770;9.188;2022-08-21T10:23:24;5.90;;;4.60;;
795;SDS011;381;48.770;9.188;2022-08-21T10:28:40;6.40;;;6.00;;
795;SDS011;381;48.770;9.188;2022-08-21T10:33:51;8.23;;;7.10;;
795;SDS011;381;48.770;9.188;2022-08-21T10:39:01;6.73;;;6.03;;
795;SDS011;381;48.770;9.188;2022-08-21T10:44:17;6.67;;;6.00;;
795;SDS011;381;48.770;9.188;2022-08-21T10:49:31;7.23;;;6.20;;
795;SDS011;381;48.770;9.188;2022-08-21T10:54:41;5.87;;;5.37;;
795;SDS011;381;48.770;9.188;2022-08-21T10:59:52;6.63;;;5.90;;
795;SDS011;381;48.770;9.188;2022-08-21T11:05:01;7.07;;;5.40;;
795;SDS011;381;48.770;9.188;2022-08-21T11:10:08;6.17;;;5.57;;
795;SDS011;381;48.770;9.188;2022-08-21T11:15:23;5.70;;;5.30;;
795;SDS011;381;48.770;9.188;2022-08-21T11:20:32;5.87;;;5.47;;
795;SDS011;381;48.770;9.188;2022-08-21T11:25:40;6.50;;;5.90;;
795;SDS011;381;48.770;9.188;2022-08-21T11:30:51;7.10;;;5.10;;
795;SDS011;381;48.770;9.188;2022-08-21T11:36:00;5.87;;;5.27;;
795;SDS011;381;48.770;9.188;2022-08-21T11:41:13;5.77;;;5.27;;
795;SDS011;381;48.770;9.188;2022-08-21T11:46:28;7.13;;;6.47;;
795;SDS011;381;48.770;9.188;2022-08-21T11:51:41;5.90;;;5.30;;
795;SDS011;381;48.770;9.188;2022-08-21T11:56:48;6.30;;;5.70;;
795;SDS011;381;48.770;9.188;2022-08-21T12:01:56;5.83;;;5.33;;
795;SDS011;381;48.770;9.188;2022-08-21T12:07:09;6.60;;;6.07;;
795;SDS011;381;48.770;9.188;2022-08-21T12:12:22;5.70;;;5.30;;
795;SDS011;381;48.770;9.188;2022-08-21T12:17:34;5.87;;;5.47;;
795;SDS011;381;48.770;9.188;2022-08-21T12:22:39;6.43;;;5.80;;
795;SDS011;381;48.770;9.188;2022-08-21T12:27:44;5.93;;;5.33;;
795;SDS011;381;48.770;9.188;2022-08-21T12:32:55;5.50;;;5.00;;
795;SDS011;381;48.770;9.188;2022-08-21T12:38:01;5.53;;;5.10;;
795;SDS011;381;48.770;9.188;2022-08-21T12:43:11;4.83;;;4.50;;
795;SDS011;381;48.770;9.188;2022-08-21T12:48:20;6.03;;;5.50;;
795;SDS011;381;48.770;9.188;2022-08-21T12:53:27;5.80;;;5.27;;
795;SDS011;381;48.770;9.188;2022-08-21T12:58:33;6.40;;;5.77;;
795;SDS011;381;48.770;9.188;2022-08-21T13:03:36;5.50;;;5.10;;
795;SDS011;381;48.770;9.188;2022-08-21T13:08:40;6.30;;;5.90;;
795;SDS011;381;48.770;9.188;2022-08-21T13:13:48;5.20;;;4.90;;
795;SDS011;381;48.770;9.188;2022-08-21T13:18:54;5.60;;;5.17;;
795;SDS011;381;48.770;9.188;2022-08-21T13:24:12;5.67;;;5.27;;
795;SDS011;381;48.770;9.188;2022-08-21T13:29:18;5.30;;;4.90;;
795;SDS011;381;48.770;9.188;2022-08-21T13:34:24;5.70;;;5.07;;
795;SDS011;381;48.770;9.188;2022-08-21T13:39:30;5.73;;;5.33;;
795;SDS011;381;48.770;9.188;2022-08-21T13:44:35;5.70;;;5.30;;
795;SDS011;381;48.770;9.188;2022-08-21T13:49:43;5.50;;;5.10;;
795;SDS011;381;48.770;9.188;2022-08-21T13:54:51;6.77;;;6.17;;
795;SDS011;381;48.770;9.188;2022-08-21T14:05:19;6.27;;;5.70;;
795;SDS011;381;48.770;9.188;2022-08-21T14:10:22;6.17;;;5.67;;
795;SDS011;381;48.770;9.188;2022-08-21T14:15:30;4.63;;;4.27;;
795;SDS011;381;48.770;9.188;2022-08-21T14:20:36;5.40;;;5.00;;
795;SDS011;381;48.770;9.188;2022-08-21T14:25:39;5.50;;;5.10;;
795;SDS011;381;48.770;9.188;2022-08-21T14:30:43;6.00;;;5.50;;
795;SDS011;381;48.770;9.188;2022-08-21T14:35:47;6.30;;;5.70;;
795;SDS011;381;48.770;9.188;2022-08-21T14:40:50;4.73;;;4.43;;
795;SDS011;381;48.770;9.188;2022-08-21T14:45:53;7.10;;;5.30;;
795;SDS011;381;48.770;9.188;2022-08-21T14:50:57;5.80;;;5.20;;
795;SDS011;381;48.770;9.188;2022-08-21T14:55:59;6.30;;;5.80;;
795;SDS011;381;48.770;9.188;2022-08-21T15:01:08;7.43;;;5.67;;
795;SDS011;381;48.770;9.188;2022-08-21T15:06:14;5.67;;;5.27;;
795;SDS011;381;48.770;9.188;2022-08-21T15:11:18;8.73;;;5.73;;
795;SDS011;381;48.770;9.188;2022-08-21T15:16:21;5.30;;;4.90;;
795;SDS011;381;48.770;9.188;2022-08-21T15:21:26;5.00;;;4.50;;
795;SDS011;381;48.770;9.188;2022-08-21T15:26:28;5.67;;;5.27;;
795;SDS011;381;48.770;9.188;2022-08-21T15:31:30;6.10;;;5.70;;
795;SDS011;381;48.770;9.188;2022-08-21T15:36:33;5.07;;;4.67;;
795;SDS011;381;48.770;9.188;2022-08-21T15:41:35;5.23;;;4.80;;
795;SDS011;381;48.770;9.188;2022-08-21T15:46:38;5.63;;;5.17;;
795;SDS011;381;48.770;9.188;2022-08-21T15:51:42;5.50;;;5.20;;
795;SDS011;381;48.770;9.188;2022-08-21T15:56:46;4.80;;;4.50;;
795;SDS011;381;48.770;9.188;2022-08-21T16:01:51;4.23;;;3.93;;
795;SDS011;381;48.770;9.188;2022-08-21T16:06:55;4.80;;;4.40;;
795;SDS011;381;48.770;9.188;2022-08-21T16:11:58;4.67;;;4.13;;
795;SDS011;381;48.770;9.188;2022-08-21T16:17:01;5.50;;;5.10;;
795;SDS011;381;48.770;9.188;2022-08-21T16:22:06;4.67;;;4.27;;
795;SDS011;381;48.770;9.188;2022-08-21T16:27:08;4.37;;;3.97;;
795;SDS011;381;48.770;9.188;2022-08-21T16:32:10;5.40;;;4.83;;
795;SDS011;381;48.770;9.188;2022-08-21T16:37:15;4.97;;;4.57;;
795;SDS011;381;48.770;9.188;2022-08-21T16:42:20;5.30;;;4.60;;
795;SDS011;381;48.770;9.188;2022-08-21T16:47:25;4.80;;;4.50;;
795;SDS011;381;48.770;9.188;2022-08-21T16:52:28;4.90;;;4.40;;
795;SDS011;381;48.770;9.188;2022-08-21T16:57:30;5.17;;;4.80;;
795;SDS011;381;48.770;9.188;2022-08-21T17:02:34;4.33;;;3.93;;
795;SDS011;381;48.770;9.188;2022-08-21T17:07:39;4.40;;;4.10;;
795;SDS011;381;48.770;9.188;2022-08-21T17:12:42;4.73;;;4.40;;
795;SDS011;381;48.770;9.188;2022-08-21T17:17:49;4.27;;;4.00;;
795;SDS011;381;48.770;9.188;2022-08-21T17:22:54;4.60;;;4.30;;
795;SDS011;381;48.770;9.188;2022-08-21T17:27:56;5.20;;;4.80;;
795;SDS011;381;48.770;9.188;2022-08-21T17:32:59;4.43;;;4.03;;
795;SDS011;381;48.770;9.188;2022-08-21T17:38:03;4.40;;;4.10;;
795;SDS011;381;48.770;9.188;2022-08-21T17:43:06;4.53;;;4.20;;
795;SDS011;381;48.770;9.188;2022-08-21T17:48:09;4.67;;;4.30;;
795;SDS011;381;48.770;9.188;2022-08-21T17:53:13;4.17;;;3.97;;
795;SDS011;381;48.770;9.188;2022-08-21T17:58:15;5.30;;;4.60;;
795;SDS011;381;48.770;9.188;2022-08-21T18:03:18;4.90;;;4.50;;
795;SDS011;381;48.770;9.188;2022-08-21T18:08:23;3.97;;;3.67;;
795;SDS011;381;48.770;9.188;2022-08-21T18:13:27;4.90;;;4.50;;
795;SDS011;381;48.770;9.188;2022-08-21T18:18:32;4.63;;;4.33;;
795;SDS011;381;48.770;9.188;2022-08-21T18:23:41;5.20;;;4.70;;
795;SDS011;381;48.770;9.188;2022-08-21T18:28:43;5.23;;;4.73;;
795;SDS011;381;48.770;9.188;2022-08-21T18:33:46;4.30;;;4.00;;
795;SDS011;381;48.770;9.188;2022-08-21T18:38:50;6.40;;;5.90;;
795;SDS011;381;48.770;9.188;2022-08-21T18:43:52;7.20;;;6.60;;
795;SDS011;381;48.770;9.188;2022-08-21T18:48:55;5.73;;;5.23;;
795;SDS011;381;48.770;9.188;2022-08-21T18:53:59;5.37;;;4.87;;
795;SDS011;381;48.770;9.188;2022-08-21T18:59:01;5.10;;;4.60;;
795;SDS011;381;48.770;9.188;2022-08-21T19:04:04;5.00;;;4.60;;
795;SDS011;381;48.770;9.188;2022-08-21T19:09:08;5.20;;;4.70;;
795;SDS011;381;48.770;9.188;2022-08-21T19:14:12;4.73;;;4.40;;
795;SDS011;381;48.770;9.188;2022-08-21T19:19:16;4.90;;;4.40;;
795;SDS011;381;48.770;9.188;2022-08-21T19:24:20;5.07;;;4.67;;
795;SDS011;381;48.770;9.188;2022-08-21T19:29:22;4.37;;;4.07;;
795;SDS011;381;48.770;9.188;2022-08-21T19:34:25;5.33;;;4.83;;
795;SDS011;381;48.770;9.188;2022-08-21T19:39:31;6.20;;;5.40;;
795;SDS011;381;48.770;9.188;2022-08-21T19:44:38;5.67;;;5.17;;
795;SDS011;381;48.770;9.188;2022-08-21T19:49:42;5.73;;;5.20;;
795;SDS011;381;48.770;9.188;2022-08-21T19:54:50;5.40;;;5.00;;
795;SDS011;381;48.770;9.188;2022-08-21T19:59:52;5.43;;;4.93;;
795;SDS011;381;48.770;9.188;2022-08-21T20:04:55;5.07;;;4.67;;
795;SDS011;381;48.770;9.188;2022-08-21T20:09:58;5.20;;;4.80;;
795;SDS011;381;48.770;9.188;2022-08-21T20:15:01;5.30;;;4.70;;
795;SDS011;381;48.770;9.188;2022-08-21T20:20:05;5.73;;;5.23;;
795;SDS011;381;48.770;9.188;2022-08-21T20:25:09;5.60;;;5.10;;
795;SDS011;381;48.770;9.188;2022-08-21T20:30:12;4.87;;;4.47;;
795;SDS011;381;48.770;9.188;2022-08-21T20:35:16;4.43;;;4.03;;
795;SDS011;381;48.770;9.188;2022-08-21T20:40:19;5.57;;;5.13;;
795;SDS011;381;48.770;9.188;2022-08-21T20:45:22;5.63;;;5.13;;
795;SDS011;381;48.770;9.188;2022-08-21T20:50:28;5.63;;;5.07;;
795;SDS011;381;48.770;9.188;2022-08-21T20:55:33;4.93;;;4.53;;
795;SDS011;381;48.770;9.188;2022-08-21T21:00:39;6.13;;;5.40;;
795;SDS011;381;48.770;9.188;2022-08-21T21:05:45;6.50;;;6.10;;
795;SDS011;381;48.770;9.188;2022-08-21T21:10:53;6.00;;;5.43;;
795;SDS011;381;48.770;9.188;2022-08-21T21:15:57;5.37;;;5.07;;
795;SDS011;381;48.770;9.188;2022-08-21T21:21:05;6.93;;;5.30;;
795;SDS011;381;48.770;9.188;2022-08-21T21:26:13;6.47;;;5.97;;
795;SDS011;381;48.770;9.188;2022-08-21T21:31:21;6.87;;;6.37;;
795;SDS011;381;48.770;9.188;2022-08-21T21:36:28;6.10;;;5.70;;
795;SDS011;381;48.770;9.188;2022-08-21T21:41:40;6.20;;;5.60;;
795;SDS011;381;48.770;9.188;2022-08-21T21:46:54;6.00;;;5.50;;
795;SDS011;381;48.770;9.188;2022-08-21T21:52:16;5.70;;;5.40;;
795;SDS011;381;48.770;9.188;2022-08-21T21:57:41;6.13;;;5.60;;
795;SDS011;381;48.770;9.188;2022-08-21T22:03:04;6.23;;;5.70;;
795;SDS011;381;48.770;9.188;2022-08-21T22:08:13;6.20;;;5.80;;
795;SDS011;381;48.770;9.188;2022-08-21T22:13:23;5.40;;;4.93;;
795;SDS011;381;48.770;9.188;2022-08-21T22:18:31;5.97;;;5.47;;
795;SDS011;381;48.770;9.188;2022-08-21T22:23:39;6.13;;;5.73;;
795;SDS011;381;48.770;9.188;2022-08-21T22:28:46;5.70;;;5.30;;
795;SDS011;381;48.770;9.188;2022-08-21T22:34:02;5.67;;;5.20;;
795;SDS011;381;48.770;9.188;2022-08-21T22:39:07;5.90;;;5.33;;
795;SDS011;381;48.770;9.188;2022-08-21T22:44:19;5.90;;;5.30;;
795;SDS011;381;48.770;9.188;2022-08-21T22:49:26;5.60;;;5.10;;
795;SDS011;381;48.770;9.188;2022-08-21T22:54:32;6.57;;;6.17;;
795;SDS011;381;48.770;9.188;2022-08-21T22:59:39;6.00;;;5.50;;
795;SDS011;381;48.770;9.188;2022-08-21T23:04:52;6.10;;;5.70;;
795;SDS011;381;48.770;9.188;2022-08-21T23:09:59;6.03;;;5.43;;
795;SDS011;381;48.770;9.188;2022-08-21T23:15:03;6.20;;;5.77;;
795;SDS011;381;48.770;9.188;2022-08-21T23:20:09;6.37;;;5.97;;
795;SDS011;381;48.770;9.188;2022-08-21T23:25:26;6.37;;;5.73;;
795;SDS011;381;48.770;9.188;2022-08-21T23:30:52;5.90;;;5.50;;
795;SDS011;381;48.770;9.188;2022-08-21T23:36:11;6.40;;;5.90;;
795;SDS011;381;48.770;9.188;2022-08-21T23:41:40;6.07;;;5.53;;
795;SDS011;381;48.770;9.188;2022-08-21T23:46:54;6.27;;;5.60;;
795;SDS011;381;48.770;9.188;2022-08-21T23:52:05;6.20;;;5.40;;
795;SDS011;381;48.770;9.188;2022-08-21T23:57:17;4.70;;;4.40;;
